Terminal Aerodrome Forecast
Issued by NWS Charleston, SC

Home | Current Version | Previous Version | Text Only | Print | Product List | Glossary On
Versions: 1 2 3 4 5 6 7 8 9 10 11 12 13
000
FTUS42 KCHS 280900 AAA
TAFSAV
TAF AMD
KSAV 280927Z 2809/2906 00000KT P6SM BKN150
     FM281100 00000KT 6SM BR SCT007
      TEMPO 2811/2812 4SM BR
     FM281300 22006KT P6SM SCT015 SCT060
     FM282300 17004KT 4SM BR BKN020=

USA.gov is the U.S. government's official web portal to all federal, state and local government web resources and services.